Terminal Aerodrome Forecast
Issued by NWS Cleveland, OH

Home | Current Version | Previous Version | Text Only | Print | Product List | Glossary Off
Versions: 1 2 3 4 5 6 7 8 9 10 11 12 13 14 15 16 17 18 19 20 21 22 23 24

000
FTUS41 KCLE 251700
TAFMFD
TAF
KMFD 251720Z 2518/2618 03012KT 1 1/2SM -SN BR OVC003
     FM252100 05010KT 1/2SM SN FZFG OVC003
     FM260600 03012KT 1 1/2SM -SN BR OVC007
     FM261700 34009KT 2SM BR OVC003=

USA.gov is the U.S. government's official web portal to all federal, state and local government web resources and services.